Golf — V7WO7 — position and weather

sailwx.info

Track history (hours):
 
Tides and Currents Weather Stations Pressure Air Temp Water Temp Dewpoint Dewpoint Depression Visibility Wind Speed Wind Dir Waves Ship Positions

Golf

Last reported at 2017-Nov-09 05:19 UTC. Time now 2017-Nov-22 21:51 UTC.
Position N 36°39' E 014°33'.
Warning: this ship's position is 13 days out of date.

Length 180 m; draft 9.3 m.

Type: Cargo ship. MMSI: 538004355.

Date/timePositionNaut miles runAvg speedWind from/ knotsBaromVisibWave heightAir tempDewpointWater temp
2017-Nov-09 05:19N 36°39' E 014°33'414.4
2017-Nov-09 05:00N 36°40' E 014°27'714.4
2017-Nov-09 04:30N 36°41' E 014°19'714.2
2017-Nov-09 04:01N 36°42' E 014°10'714.1
2017-Nov-09 03:30N 36°44' E 014°01'714.0
2017-Nov-09 03:00N 36°45' E 013°53'714.4
2017-Nov-09 02:30N 36°47' E 013°44'714.0
2017-Nov-09 01:59N 36°48' E 013°35'  
2017-Nov-05 09:53N 38°17' W 009°58'1013.9
2017-Nov-05 09:11N 38°26' W 010°01'514.3
2017-Nov-05 08:50N 38°31' W 010°03'513.9
2017-Nov-05 08:29N 38°36' W 010°04'713.2
2017-Nov-05 07:59N 38°42' W 010°06'613.6
2017-Nov-05 07:31N 38°49' W 010°06'713.7
2017-Nov-05 07:01N 38°56' W 010°06'713.6
2017-Nov-05 06:30N 39°02' W 010°06'713.8
2017-Nov-05 06:00N 39°09' W 010°06'60213.4
2017-Nov-03 09:05N 48°43' W 005°56'415.0
2017-Nov-03 08:51N 48°46' W 005°54'3314.6
2017-Nov-03 06:33N 49°07' W 005°14'114.7
2017-Nov-03 06:30N 49°08' W 005°13'713.9
2017-Nov-03 05:59N 49°11' W 005°03'713.0
2017-Nov-03 05:29N 49°14' W 004°55'812.4
2017-Nov-03 04:52N 49°18' W 004°45'512.0
2017-Nov-03 04:28N 49°21' W 004°38'1011.8
2017-Nov-03 03:37N 49°26' W 004°25'211.7
2017-Nov-03 03:26N 49°27' W 004°22'1911.6
2017-Nov-03 01:47N 49°37' W 003°56'1612.9
2017-Nov-03 00:34N 49°45' W 003°36'113.5
2017-Nov-03 00:30N 49°45' W 003°35'713.8
2017-Nov-03 00:00N 49°49' W 003°26'714.2
2017-Nov-02 23:30N 49°52' W 003°16'714.2
2017-Nov-02 23:00N 49°56' W 003°07'713.9
2017-Nov-02 22:30N 49°59' W 002°57'813.6
2017-Nov-02 21:56N 50°01' W 002°46'613.0
2017-Nov-02 21:29N 50°03' W 002°37'712.5
2017-Nov-02 20:53N 50°05' W 002°25'2310.9
2017-Nov-02 18:46N 50°11' W 001°51'3 9.8
2017-Nov-02 18:30N 50°11' W 001°47'5 9.8
2017-Nov-02 18:00N 50°13' W 001°39'510.1
2017-Nov-02 17:29N 50°14' W 001°31'510.5
2017-Nov-02 16:59N 50°16' W 001°24'2712.8
2017-Nov-02 14:51N 50°23' W 000°42'1114.3
2017-Nov-02 14:06N 50°26' W 000°26'114.3
2017-Nov-02 14:00N 50°26' W 000°24'714.1
2017-Nov-02 13:30N 50°28' W 000°13'714.0
2017-Nov-02 13:00N 50°30' W 000°03'713.9
2017-Nov-02 12:30N 50°32' E 000°08'713.8
2017-Nov-02 12:00N 50°34' E 000°18'713.6
2017-Nov-02 11:30N 50°35' E 000°28'713.2
2017-Nov-02 11:00N 50°38' E 000°38'612.8
2017-Nov-02 10:30N 50°41' E 000°47'612.4
2017-Nov-02 10:00N 50°45' E 000°55'612.2
2017-Nov-02 09:30N 50°48' E 001°03'612.0
2017-Nov-02 09:00N 50°52' E 001°10'612.0
2017-Nov-02 08:29N 50°55' E 001°18'612.2
2017-Nov-02 08:00N 50°60' E 001°24'713.5
2017-Nov-02 07:30N 51°04' E 001°32'714.4
2017-Nov-02 07:00N 51°10' E 001°40'714.7
2017-Nov-02 06:30N 51°15' E 001°47'715.0
2017-Nov-02 06:00N 51°22' E 001°53'714.8
2017-Nov-02 05:30N 51°28' E 001°59'714.3
2017-Nov-02 05:00N 51°33' E 002°07'713.8
2017-Nov-02 04:30N 51°39' E 002°14'713.4
2017-Nov-02 03:58N 51°44' E 002°22'612.7
2017-Nov-02 03:30N 51°49' E 002°28'712.4
2017-Nov-02 02:57N 51°54' E 002°35'612.3
2017-Nov-02 02:27N 51°59' E 002°41'611.9
2017-Nov-02 01:59N 52°03' E 002°47'2011.2
2017-Nov-02 00:12N 52°18' E 003°09'310.9
2017-Nov-01 23:56N 52°20' E 003°13'511.1
2017-Nov-01 23:30N 52°23' E 003°18'611.1
2017-Nov-01 22:59N 52°26' E 003°27'711.7
2017-Nov-01 22:23N 52°28' E 003°38'411.9
2017-Nov-01 22:00N 52°30' E 003°44'611.9
2017-Nov-01 21:30N 52°31' E 003°54'612.1
2017-Nov-01 21:00N 52°31' E 004°04'611.5
2017-Nov-01 20:30N 52°31' E 004°13'612.1
2017-Nov-01 20:00N 52°29' E 004°23'5 9.6
2017-Nov-01 19:30N 52°28' E 004°30'4 7.6
2017-Nov-01 19:00N 52°28' E 004°37'0 0.4
2017-Nov-01 18:31N 52°28' E 004°37'10 0.6
2017-Nov-01 02:00N 52°24' E 004°52'0 0.0
2017-Nov-01 01:30N 52°24' E 004°52'0 0.0
2017-Nov-01 01:00N 52°24' E 004°52'0 0.0
2017-Nov-01 00:30N 52°24' E 004°52'0 0.0
2017-Nov-01 00:00N 52°24' E 004°52'0 0.0
2017-Oct-31 23:30N 52°24' E 004°52'0 0.0
2017-Oct-31 23:00N 52°24' E 004°52'0 0.0
2017-Oct-31 22:30N 52°24' E 004°52'0 0.0
2017-Oct-31 22:00N 52°24' E 004°52'0 0.0
2017-Oct-31 21:30N 52°24' E 004°52'0 0.0
2017-Oct-31 21:00N 52°24' E 004°52'0 0.0
2017-Oct-31 20:30N 52°24' E 004°52'0 0.0
2017-Oct-31 20:00N 52°24' E 004°52'0 0.0
2017-Oct-31 19:30N 52°24' E 004°52'0 0.0
2017-Oct-31 19:00N 52°24' E 004°52'0 0.0
2017-Oct-31 18:30N 52°24' E 004°52'0 0.0
2017-Oct-31 18:00N 52°24' E 004°52'0 0.0
2017-Oct-31 17:30N 52°24' E 004°52'0 0.0
2017-Oct-31 16:57N 52°24' E 004°52'0 0.0
2017-Oct-31 16:30N 52°24' E 004°52'0 0.0
2017-Oct-31 16:00N 52°24' E 004°52'0 0.0
2017-Oct-31 15:30N 52°24' E 004°52'0 0.0
2017-Oct-31 15:00N 52°24' E 004°52'0 0.0
2017-Oct-31 14:30N 52°24' E 004°52'0 0.0
2017-Oct-31 13:59N 52°24' E 004°52'0 0.0
2017-Oct-31 13:30N 52°24' E 004°52'0 0.0
2017-Oct-31 13:00N 52°24' E 004°52'0 0.0
2017-Oct-31 12:30N 52°24' E 004°52'0 0.0
2017-Oct-31 11:59N 52°24' E 004°52'0 0.0
2017-Oct-31 11:30N 52°24' E 004°52'0 0.0
2017-Oct-31 10:59N 52°24' E 004°52'0 0.0
2017-Oct-31 10:30N 52°24' E 004°52'0 0.0
2017-Oct-31 09:59N 52°24' E 004°52'0 0.0
2017-Oct-31 09:29N 52°24' E 004°52'0 0.0
2017-Oct-31 09:00N 52°24' E 004°52'0 0.0
2017-Oct-31 08:30N 52°24' E 004°52'0 0.0
2017-Oct-31 08:00N 52°24' E 004°52'0 0.0
2017-Oct-31 07:29N 52°24' E 004°52'0 0.0
2017-Oct-31 07:00N 52°24' E 004°52'0 0.0
2017-Oct-31 06:29N 52°24' E 004°52'0 0.0
2017-Oct-31 06:00N 52°24' E 004°52'0 0.0
2017-Oct-31 05:29N 52°24' E 004°52'0 0.0
2017-Oct-31 04:59N 52°24' E 004°52'0 0.0
2017-Oct-31 04:29N 52°24' E 004°52'0 0.0
2017-Oct-31 04:00N 52°24' E 004°52'0 0.0
2017-Oct-31 03:30N 52°24' E 004°52'0 0.0
2017-Oct-31 02:59N 52°24' E 004°52'0 0.0
2017-Oct-31 02:29N 52°24' E 004°52'0 0.0
2017-Oct-31 01:59N 52°24' E 004°52'0 0.0
2017-Oct-31 01:29N 52°24' E 004°52'0 0.0
2017-Oct-31 00:29N 52°24' E 004°52'0 0.0
2017-Oct-31 00:00N 52°24' E 004°52'0 0.0
2017-Oct-30 23:29N 52°24' E 004°52'0 0.0
2017-Oct-30 22:59N 52°24' E 004°52'0 0.0
2017-Oct-30 22:29N 52°24' E 004°52'0 0.0
2017-Oct-30 21:59N 52°24' E 004°52'0 0.0
2017-Oct-30 21:29N 52°24' E 004°52'0 0.0
2017-Oct-30 20:59N 52°24' E 004°52'0 0.0
2017-Oct-30 20:29N 52°24' E 004°52'0 0.0
2017-Oct-30 19:59N 52°24' E 004°52'0 0.0
2017-Oct-30 19:29N 52°24' E 004°52'0 0.0
2017-Oct-30 18:56N 52°24' E 004°52'0 0.0
2017-Oct-30 18:29N 52°24' E 004°52'0 0.0
2017-Oct-30 17:59N 52°24' E 004°52'0 0.0
2017-Oct-30 17:29N 52°24' E 004°52'0 0.0
2017-Oct-30 16:59N 52°24' E 004°52'0 0.0
2017-Oct-30 16:29N 52°24' E 004°52'0 0.0
2017-Oct-30 15:59N 52°24' E 004°52'0 0.0
2017-Oct-30 15:29N 52°24' E 004°52'0 0.0
2017-Oct-30 14:59N 52°24' E 004°52'0 0.0
2017-Oct-30 14:30N 52°24' E 004°52'0 0.0
2017-Oct-30 13:29N 52°24' E 004°52'0 0.0
2017-Oct-30 12:59N 52°24' E 004°52'0 0.0
2017-Oct-30 12:29N 52°24' E 004°52'0 0.0
2017-Oct-30 11:59N 52°24' E 004°52'0 0.0
2017-Oct-30 11:29N 52°24' E 004°52'0 0.0
2017-Oct-30 10:59N 52°24' E 004°52'0 0.0
2017-Oct-30 10:29N 52°24' E 004°52'0 0.0
2017-Oct-30 09:59N 52°24' E 004°52'0 0.0
2017-Oct-30 09:29N 52°24' E 004°52'0 0.0
2017-Oct-30 08:59N 52°24' E 004°52'0 0.0
2017-Oct-30 08:29N 52°24' E 004°52'0 0.0
2017-Oct-30 07:59N 52°24' E 004°52'0 0.0
2017-Oct-30 07:29N 52°24' E 004°52'0 0.0
2017-Oct-30 06:59N 52°24' E 004°52'0 0.0
2017-Oct-30 06:29N 52°24' E 004°52'0 0.0
2017-Oct-30 05:59N 52°24' E 004°52'0 0.0
2017-Oct-30 05:29N 52°24' E 004°52'  
Track history (hours):
 
Tides and Currents Weather Stations Pressure Air Temp Water Temp Dewpoint Dewpoint Depression Visibility Wind Speed Wind Dir Waves Ship Positions

Golf

Last reported at 2017-Nov-09 05:19 UTC. Time now 2017-Nov-22 21:51 UTC.
Position N 36°39' E 014°33'.
Warning: this ship's position is 13 days out of date.

Length 180 m; draft 9.3 m.

Type: Cargo ship. MMSI: 538004355.

Date/timePositionNaut miles runAvg speedWind from/ knotsBaromVisibWave heightAir tempDewpointWater temp
2017-Nov-09 05:19N 36°39' E 014°33'414.4
2017-Nov-09 05:00N 36°40' E 014°27'714.4
2017-Nov-09 04:30N 36°41' E 014°19'714.2
2017-Nov-09 04:01N 36°42' E 014°10'714.1
2017-Nov-09 03:30N 36°44' E 014°01'714.0
2017-Nov-09 03:00N 36°45' E 013°53'714.4
2017-Nov-09 02:30N 36°47' E 013°44'714.0
2017-Nov-09 01:59N 36°48' E 013°35'  
2017-Nov-05 09:53N 38°17' W 009°58'1013.9
2017-Nov-05 09:11N 38°26' W 010°01'514.3
2017-Nov-05 08:50N 38°31' W 010°03'513.9
2017-Nov-05 08:29N 38°36' W 010°04'713.2
2017-Nov-05 07:59N 38°42' W 010°06'613.6
2017-Nov-05 07:31N 38°49' W 010°06'713.7
2017-Nov-05 07:01N 38°56' W 010°06'713.6
2017-Nov-05 06:30N 39°02' W 010°06'713.8
2017-Nov-05 06:00N 39°09' W 010°06'60213.4
2017-Nov-03 09:05N 48°43' W 005°56'415.0
2017-Nov-03 08:51N 48°46' W 005°54'3314.6
2017-Nov-03 06:33N 49°07' W 005°14'114.7
2017-Nov-03 06:30N 49°08' W 005°13'713.9
2017-Nov-03 05:59N 49°11' W 005°03'713.0
2017-Nov-03 05:29N 49°14' W 004°55'812.4
2017-Nov-03 04:52N 49°18' W 004°45'512.0
2017-Nov-03 04:28N 49°21' W 004°38'1011.8
2017-Nov-03 03:37N 49°26' W 004°25'211.7
2017-Nov-03 03:26N 49°27' W 004°22'1911.6
2017-Nov-03 01:47N 49°37' W 003°56'1612.9
2017-Nov-03 00:34N 49°45' W 003°36'113.5
2017-Nov-03 00:30N 49°45' W 003°35'713.8
2017-Nov-03 00:00N 49°49' W 003°26'714.2
2017-Nov-02 23:30N 49°52' W 003°16'714.2
2017-Nov-02 23:00N 49°56' W 003°07'713.9
2017-Nov-02 22:30N 49°59' W 002°57'813.6
2017-Nov-02 21:56N 50°01' W 002°46'613.0
2017-Nov-02 21:29N 50°03' W 002°37'712.5
2017-Nov-02 20:53N 50°05' W 002°25'2310.9
2017-Nov-02 18:46N 50°11' W 001°51'3 9.8
2017-Nov-02 18:30N 50°11' W 001°47'5 9.8
2017-Nov-02 18:00N 50°13' W 001°39'510.1
2017-Nov-02 17:29N 50°14' W 001°31'510.5
2017-Nov-02 16:59N 50°16' W 001°24'2712.8
2017-Nov-02 14:51N 50°23' W 000°42'1114.3
2017-Nov-02 14:06N 50°26' W 000°26'114.3
2017-Nov-02 14:00N 50°26' W 000°24'714.1
2017-Nov-02 13:30N 50°28' W 000°13'714.0
2017-Nov-02 13:00N 50°30' W 000°03'713.9
2017-Nov-02 12:30N 50°32' E 000°08'713.8
2017-Nov-02 12:00N 50°34' E 000°18'713.6
2017-Nov-02 11:30N 50°35' E 000°28'713.2
2017-Nov-02 11:00N 50°38' E 000°38'612.8
2017-Nov-02 10:30N 50°41' E 000°47'612.4
2017-Nov-02 10:00N 50°45' E 000°55'612.2
2017-Nov-02 09:30N 50°48' E 001°03'612.0
2017-Nov-02 09:00N 50°52' E 001°10'612.0
2017-Nov-02 08:29N 50°55' E 001°18'612.2
2017-Nov-02 08:00N 50°60' E 001°24'713.5
2017-Nov-02 07:30N 51°04' E 001°32'714.4
2017-Nov-02 07:00N 51°10' E 001°40'714.7
2017-Nov-02 06:30N 51°15' E 001°47'715.0
2017-Nov-02 06:00N 51°22' E 001°53'714.8
2017-Nov-02 05:30N 51°28' E 001°59'714.3
2017-Nov-02 05:00N 51°33' E 002°07'713.8
2017-Nov-02 04:30N 51°39' E 002°14'713.4
2017-Nov-02 03:58N 51°44' E 002°22'612.7
2017-Nov-02 03:30N 51°49' E 002°28'712.4
2017-Nov-02 02:57N 51°54' E 002°35'612.3
2017-Nov-02 02:27N 51°59' E 002°41'611.9
2017-Nov-02 01:59N 52°03' E 002°47'2011.2
2017-Nov-02 00:12N 52°18' E 003°09'310.9
2017-Nov-01 23:56N 52°20' E 003°13'511.1
2017-Nov-01 23:30N 52°23' E 003°18'611.1
2017-Nov-01 22:59N 52°26' E 003°27'711.7
2017-Nov-01 22:23N 52°28' E 003°38'411.9
2017-Nov-01 22:00N 52°30' E 003°44'611.9
2017-Nov-01 21:30N 52°31' E 003°54'612.1
2017-Nov-01 21:00N 52°31' E 004°04'611.5
2017-Nov-01 20:30N 52°31' E 004°13'612.1
2017-Nov-01 20:00N 52°29' E 004°23'5 9.6
2017-Nov-01 19:30N 52°28' E 004°30'4 7.6
2017-Nov-01 19:00N 52°28' E 004°37'0 0.4
2017-Nov-01 18:31N 52°28' E 004°37'10 0.6
2017-Nov-01 02:00N 52°24' E 004°52'0 0.0
2017-Nov-01 01:30N 52°24' E 004°52'0 0.0
2017-Nov-01 01:00N 52°24' E 004°52'0 0.0
2017-Nov-01 00:30N 52°24' E 004°52'0 0.0
2017-Nov-01 00:00N 52°24' E 004°52'0 0.0
2017-Oct-31 23:30N 52°24' E 004°52'0 0.0
2017-Oct-31 23:00N 52°24' E 004°52'0 0.0
2017-Oct-31 22:30N 52°24' E 004°52'0 0.0
2017-Oct-31 22:00N 52°24' E 004°52'0 0.0
2017-Oct-31 21:30N 52°24' E 004°52'0 0.0
2017-Oct-31 21:00N 52°24' E 004°52'0 0.0
2017-Oct-31 20:30N 52°24' E 004°52'0 0.0
2017-Oct-31 20:00N 52°24' E 004°52'0 0.0
2017-Oct-31 19:30N 52°24' E 004°52'0 0.0
2017-Oct-31 19:00N 52°24' E 004°52'0 0.0
2017-Oct-31 18:30N 52°24' E 004°52'0 0.0
2017-Oct-31 18:00N 52°24' E 004°52'0 0.0
2017-Oct-31 17:30N 52°24' E 004°52'0 0.0
2017-Oct-31 16:57N 52°24' E 004°52'0 0.0
2017-Oct-31 16:30N 52°24' E 004°52'0 0.0
2017-Oct-31 16:00N 52°24' E 004°52'0 0.0
2017-Oct-31 15:30N 52°24' E 004°52'0 0.0
2017-Oct-31 15:00N 52°24' E 004°52'0 0.0
2017-Oct-31 14:30N 52°24' E 004°52'0 0.0
2017-Oct-31 13:59N 52°24' E 004°52'0 0.0
2017-Oct-31 13:30N 52°24' E 004°52'0 0.0
2017-Oct-31 13:00N 52°24' E 004°52'0 0.0
2017-Oct-31 12:30N 52°24' E 004°52'0 0.0
2017-Oct-31 11:59N 52°24' E 004°52'0 0.0
2017-Oct-31 11:30N 52°24' E 004°52'0 0.0
2017-Oct-31 10:59N 52°24' E 004°52'0 0.0
2017-Oct-31 10:30N 52°24' E 004°52'0 0.0
2017-Oct-31 09:59N 52°24' E 004°52'0 0.0
2017-Oct-31 09:29N 52°24' E 004°52'0 0.0
2017-Oct-31 09:00N 52°24' E 004°52'0 0.0
2017-Oct-31 08:30N 52°24' E 004°52'0 0.0
2017-Oct-31 08:00N 52°24' E 004°52'0 0.0
2017-Oct-31 07:29N 52°24' E 004°52'0 0.0
2017-Oct-31 07:00N 52°24' E 004°52'0 0.0
2017-Oct-31 06:29N 52°24' E 004°52'0 0.0
2017-Oct-31 06:00N 52°24' E 004°52'0 0.0
2017-Oct-31 05:29N 52°24' E 004°52'0 0.0
2017-Oct-31 04:59N 52°24' E 004°52'0 0.0
2017-Oct-31 04:29N 52°24' E 004°52'0 0.0
2017-Oct-31 04:00N 52°24' E 004°52'0 0.0
2017-Oct-31 03:30N 52°24' E 004°52'0 0.0
2017-Oct-31 02:59N 52°24' E 004°52'0 0.0
2017-Oct-31 02:29N 52°24' E 004°52'0 0.0
2017-Oct-31 01:59N 52°24' E 004°52'0 0.0
2017-Oct-31 01:29N 52°24' E 004°52'0 0.0
2017-Oct-31 00:29N 52°24' E 004°52'0 0.0
2017-Oct-31 00:00N 52°24' E 004°52'0 0.0
2017-Oct-30 23:29N 52°24' E 004°52'0 0.0
2017-Oct-30 22:59N 52°24' E 004°52'0 0.0
2017-Oct-30 22:29N 52°24' E 004°52'0 0.0
2017-Oct-30 21:59N 52°24' E 004°52'0 0.0
2017-Oct-30 21:29N 52°24' E 004°52'0 0.0
2017-Oct-30 20:59N 52°24' E 004°52'0 0.0
2017-Oct-30 20:29N 52°24' E 004°52'0 0.0
2017-Oct-30 19:59N 52°24' E 004°52'0 0.0
2017-Oct-30 19:29N 52°24' E 004°52'0 0.0
2017-Oct-30 18:56N 52°24' E 004°52'0 0.0
2017-Oct-30 18:29N 52°24' E 004°52'0 0.0
2017-Oct-30 17:59N 52°24' E 004°52'0 0.0
2017-Oct-30 17:29N 52°24' E 004°52'0 0.0
2017-Oct-30 16:59N 52°24' E 004°52'0 0.0
2017-Oct-30 16:29N 52°24' E 004°52'0 0.0
2017-Oct-30 15:59N 52°24' E 004°52'0 0.0
2017-Oct-30 15:29N 52°24' E 004°52'0 0.0
2017-Oct-30 14:59N 52°24' E 004°52'0 0.0
2017-Oct-30 14:30N 52°24' E 004°52'0 0.0
2017-Oct-30 13:29N 52°24' E 004°52'0 0.0
2017-Oct-30 12:59N 52°24' E 004°52'0 0.0
2017-Oct-30 12:29N 52°24' E 004°52'0 0.0
2017-Oct-30 11:59N 52°24' E 004°52'0 0.0
2017-Oct-30 11:29N 52°24' E 004°52'0 0.0
2017-Oct-30 10:59N 52°24' E 004°52'0 0.0
2017-Oct-30 10:29N 52°24' E 004°52'0 0.0
2017-Oct-30 09:59N 52°24' E 004°52'0 0.0
2017-Oct-30 09:29N 52°24' E 004°52'0 0.0
2017-Oct-30 08:59N 52°24' E 004°52'0 0.0
2017-Oct-30 08:29N 52°24' E 004°52'0 0.0
2017-Oct-30 07:59N 52°24' E 004°52'0 0.0
2017-Oct-30 07:29N 52°24' E 004°52'0 0.0
2017-Oct-30 06:59N 52°24' E 004°52'0 0.0
2017-Oct-30 06:29N 52°24' E 004°52'0 0.0
2017-Oct-30 05:59N 52°24' E 004°52'0 0.0
2017-Oct-30 05:29N 52°24' E 004°52'  

Dump ship's entire track history